createdAt,value
2019-01-18T00:02:14.466Z,67.18
2019-01-18T00:04:41.897Z,67.34
2019-01-18T00:07:09.315Z,67.53
2019-01-18T00:09:36.714Z,67.55
2019-01-18T00:12:04.119Z,68.03
2019-01-18T00:14:31.512Z,68.59
2019-01-18T00:16:58.902Z,69.03
2019-01-18T00:19:26.310Z,68.91
2019-01-18T00:21:53.715Z,68.65
2019-01-18T00:24:21.172Z,68.29
2019-01-18T00:26:48.601Z,68.07
2019-01-18T00:29:16.026Z,68.23
2019-01-18T00:31:43.937Z,68.69
2019-01-18T00:34:11.340Z,68.93
2019-01-18T00:36:38.727Z,69.18
2019-01-18T00:39:06.128Z,69.72
2019-01-18T00:41:33.717Z,70.21
2019-01-18T00:44:01.162Z,70.23
2019-01-18T00:46:28.554Z,70.72
2019-01-18T00:48:55.953Z,70.32
2019-01-18T00:51:23.338Z,69.98
2019-01-18T00:53:50.786Z,69.95
2019-01-18T00:56:19.131Z,70.13
2019-01-18T00:58:46.520Z,69.74
2019-01-18T01:01:13.990Z,69.64
2019-01-18T01:03:41.387Z,69.23
2019-01-18T01:06:08.936Z,68.93
2019-01-18T01:08:36.329Z,68.56
2019-01-18T01:11:03.747Z,68.34
2019-01-18T01:13:31.167Z,68.37
2019-01-18T01:15:58.556Z,68.45
2019-01-18T01:18:26.013Z,68.84
2019-01-18T01:20:53.413Z,68.99
2019-01-18T01:23:20.842Z,69.01
2019-01-18T01:25:48.255Z,69.23
2019-01-18T01:28:15.654Z,69.10
2019-01-18T01:30:43.084Z,68.63
2019-01-18T01:33:10.508Z,68.94
2019-01-18T01:35:37.945Z,68.92
2019-01-18T01:38:05.478Z,68.31
2019-01-18T01:40:32.874Z,67.91
2019-01-18T01:43:00.282Z,67.60
2019-01-18T01:45:27.707Z,67.60
2019-01-18T01:47:55.102Z,68.45
2019-01-18T01:50:22.532Z,68.97
2019-01-18T01:52:49.938Z,69.08
2019-01-18T01:55:17.335Z,69.49
2019-01-18T01:57:44.739Z,69.70
2019-01-18T02:00:12.190Z,69.89
2019-01-18T02:02:39.635Z,69.76
2019-01-18T02:05:07.022Z,69.38
2019-01-18T02:07:34.464Z,69.30
2019-01-18T02:10:01.887Z,69.35
2019-01-18T02:12:29.282Z,69.40
2019-01-18T02:14:56.921Z,69.50
2019-01-18T02:17:24.345Z,69.49
2019-01-18T02:19:51.738Z,69.62
2019-01-18T02:22:19.205Z,69.81
2019-01-18T02:24:46.598Z,69.88
2019-01-18T02:27:14.210Z,69.98
2019-01-18T02:29:41.631Z,70.32
2019-01-18T02:32:09.080Z,70.41
2019-01-18T02:34:37.537Z,70.31
2019-01-18T02:37:04.930Z,70.32
2019-01-18T02:39:32.403Z,70.11
2019-01-18T02:41:59.816Z,70.54
2019-01-18T02:44:27.229Z,70.47
2019-01-18T02:46:54.664Z,70.50
2019-01-18T02:49:22.095Z,70.63
2019-01-18T02:51:49.509Z,70.74
2019-01-18T02:54:16.927Z,70.35
2019-01-18T02:56:44.495Z,70.27
2019-01-18T02:59:11.900Z,69.91
2019-01-18T03:01:39.321Z,69.52
2019-01-18T03:04:06.718Z,69.29
2019-01-18T03:06:34.136Z,69.11
2019-01-18T03:09:01.808Z,69.33
2019-01-18T03:11:29.244Z,69.55
2019-01-18T03:13:56.691Z,70.17
2019-01-18T03:16:24.088Z,70.79
2019-01-18T03:18:51.529Z,71.17
2019-01-18T03:21:18.972Z,71.54
2019-01-18T03:23:46.378Z,71.40
2019-01-18T03:26:13.775Z,70.94
2019-01-18T03:28:41.235Z,70.68
2019-01-18T03:31:08.655Z,70.90
2019-01-18T03:33:36.363Z,70.79
2019-01-18T03:36:03.764Z,70.72
2019-01-18T03:38:31.205Z,70.55
2019-01-18T03:40:58.639Z,70.59
2019-01-18T03:43:26.292Z,70.54
2019-01-18T03:45:53.704Z,70.29
2019-01-18T03:48:21.111Z,70.58
2019-01-18T03:50:48.524Z,70.89
2019-01-18T03:53:16.004Z,71.01
2019-01-18T03:55:43.521Z,71.56
2019-01-18T03:58:11.016Z,72.45
2019-01-18T04:00:38.602Z,73.00
2019-01-18T04:03:06.029Z,73.16
2019-01-18T04:05:33.494Z,73.08
2019-01-18T04:08:00.912Z,72.80
2019-01-18T04:10:28.374Z,72.15
2019-01-18T04:12:55.783Z,72.20
2019-01-18T04:15:23.213Z,72.73
2019-01-18T04:17:51.526Z,72.51
2019-01-18T04:20:18.989Z,72.19
2019-01-18T04:22:46.548Z,72.39
2019-01-18T04:25:13.956Z,72.99
2019-01-18T04:27:41.420Z,73.38
2019-01-18T04:30:11.541Z,72.81
2019-01-18T04:32:38.957Z,72.37
2019-01-18T04:35:06.358Z,72.32
2019-01-18T04:37:33.875Z,72.70
2019-01-18T04:40:01.282Z,73.01
2019-01-18T04:42:28.715Z,72.85
2019-01-18T04:44:56.972Z,72.61
2019-01-18T04:47:24.410Z,72.34
2019-01-18T04:49:51.813Z,72.66
2019-01-18T04:52:19.243Z,73.05
2019-01-18T04:54:46.634Z,73.12
2019-01-18T04:57:14.695Z,73.06
2019-01-18T04:59:42.119Z,73.41
2019-01-18T05:02:09.507Z,73.83
2019-01-18T05:04:36.911Z,74.26
2019-01-18T05:07:04.320Z,74.14
2019-01-18T05:09:31.751Z,74.26
2019-01-18T05:11:59.128Z,74.20
2019-01-18T05:14:27.208Z,74.38
2019-01-18T05:16:55.062Z,74.26
2019-01-18T05:19:22.513Z,74.76
2019-01-18T05:21:49.942Z,74.89
2019-01-18T05:24:17.353Z,75.02
2019-01-18T05:26:44.792Z,75.48
2019-01-18T05:29:12.252Z,75.44
2019-01-18T05:31:39.670Z,75.43
2019-01-18T05:34:07.098Z,75.76
2019-01-18T05:36:34.490Z,76.01
2019-01-18T05:39:02.008Z,75.88
2019-01-18T05:41:29.412Z,75.39
2019-01-18T05:43:56.834Z,74.96
2019-01-18T05:46:24.814Z,74.91
2019-01-18T05:48:52.287Z,75.02
2019-01-18T05:51:19.719Z,75.16
2019-01-18T05:53:47.111Z,75.22
2019-01-18T05:56:15.270Z,75.04
2019-01-18T05:58:42.650Z,74.73
2019-01-18T06:01:10.059Z,74.75
2019-01-18T06:03:38.341Z,74.81
2019-01-18T06:06:05.779Z,75.10
2019-01-18T06:08:33.688Z,75.33
2019-01-18T06:11:01.100Z,75.29
2019-01-18T06:13:28.643Z,75.17
2019-01-18T06:15:56.300Z,75.08
2019-01-18T06:18:23.723Z,75.31
2019-01-18T06:20:51.114Z,75.34
2019-01-18T06:23:18.550Z,75.61
2019-01-18T06:25:45.964Z,75.88
2019-01-18T06:28:13.726Z,76.08
2019-01-18T06:30:41.153Z,75.82
2019-01-18T06:33:08.563Z,75.88
2019-01-18T06:35:35.993Z,76.06
2019-01-18T06:38:03.395Z,75.97
2019-01-18T06:40:30.878Z,76.06
2019-01-18T06:42:58.262Z,76.53
2019-01-18T06:45:25.718Z,76.49
2019-01-18T06:47:53.221Z,76.58
2019-01-18T06:50:20.667Z,76.37
2019-01-18T06:52:48.153Z,76.35
2019-01-18T06:55:15.574Z,76.46
2019-01-18T06:57:42.992Z,76.18
2019-01-18T07:00:16.403Z,75.95
2019-01-18T07:02:43.879Z,75.77
2019-01-18T07:05:11.343Z,75.46
2019-01-18T07:07:39.087Z,75.23
2019-01-18T07:10:07.109Z,74.72
2019-01-18T07:12:34.506Z,74.46
2019-01-18T07:15:01.921Z,74.34
2019-01-18T07:17:29.342Z,74.19
2019-01-18T07:19:56.735Z,74.54
2019-01-18T07:22:24.138Z,74.38
2019-01-18T07:24:51.541Z,74.66
2019-01-18T07:27:19.027Z,75.00
2019-01-18T07:29:46.792Z,75.25
2019-01-18T07:32:14.350Z,75.16
2019-01-18T07:34:42.055Z,74.84
2019-01-18T07:37:09.526Z,75.04
2019-01-18T07:39:36.967Z,74.16
2019-01-18T07:42:04.385Z,74.25
2019-01-18T07:44:31.835Z,74.58
2019-01-18T07:46:59.251Z,73.93
2019-01-18T07:49:26.696Z,73.40
2019-01-18T07:51:54.127Z,73.34
2019-01-18T07:54:21.582Z,72.61
2019-01-18T07:56:48.987Z,71.33
2019-01-18T07:59:16.389Z,72.02
2019-01-18T08:01:43.910Z,71.94
2019-01-18T08:04:11.393Z,71.95
2019-01-18T08:06:38.779Z,71.91
2019-01-18T08:09:06.320Z,72.05
2019-01-18T08:11:33.742Z,71.77
2019-01-18T08:14:01.139Z,71.26
2019-01-18T08:16:28.641Z,71.40
2019-01-18T08:18:56.028Z,71.18
2019-01-18T08:21:23.484Z,70.47
2019-01-18T08:23:51.718Z,70.36
2019-01-18T08:26:19.131Z,69.82
2019-01-18T08:28:46.559Z,68.73
2019-01-18T08:31:13.953Z,68.35
2019-01-18T08:33:41.368Z,68.09
2019-01-18T08:36:08.827Z,67.46
2019-01-18T08:38:36.216Z,66.78
2019-01-18T08:41:03.665Z,66.71
2019-01-18T08:43:31.682Z,70.34
2019-01-18T08:45:59.137Z,67.87
2019-01-18T08:48:26.560Z,66.45
2019-01-18T08:50:54.003Z,64.92
2019-01-18T08:53:21.403Z,63.86
2019-01-18T08:55:48.852Z,63.88
2019-01-18T08:58:16.262Z,63.40
2019-01-18T09:00:43.672Z,62.71
2019-01-18T09:03:11.238Z,61.74
2019-01-18T09:05:38.627Z,59.88
2019-01-18T09:08:06.076Z,55.83
2019-01-18T09:10:33.504Z,52.88
2019-01-18T09:13:00.984Z,50.18
2019-01-18T09:15:28.483Z,48.40
2019-01-18T09:17:55.914Z,45.76
2019-01-18T09:20:24.233Z,44.81
2019-01-18T09:22:51.673Z,44.57
2019-01-18T09:25:19.091Z,43.97
2019-01-18T09:27:46.541Z,42.86
2019-01-18T09:30:21.407Z,40.92
2019-01-18T09:32:48.818Z,40.15
2019-01-18T09:35:17.015Z,38.52
2019-01-18T09:37:44.431Z,38.74
2019-01-18T09:40:22.205Z,38.32
2019-01-18T09:42:49.754Z,38.15
2019-01-18T09:45:17.229Z,37.07
2019-01-18T09:47:44.668Z,35.99
2019-01-18T09:50:12.955Z,36.56
2019-01-18T09:52:40.348Z,36.31
2019-01-18T09:55:07.805Z,36.91
2019-01-18T09:57:35.322Z,38.13
2019-01-18T10:00:02.783Z,38.17
2019-01-18T10:02:30.230Z,38.29
2019-01-18T10:04:57.677Z,37.89
2019-01-18T10:07:25.121Z,37.62
2019-01-18T10:09:52.622Z,37.97
2019-01-18T10:12:20.027Z,38.39
2019-01-18T10:14:47.601Z,37.91
2019-01-18T10:17:14.574Z,36.92
2019-01-18T10:19:41.981Z,36.52
2019-01-18T10:22:09.416Z,36.45
2019-01-18T10:24:36.359Z,36.44
2019-01-18T10:27:03.375Z,34.96
2019-01-18T10:29:30.448Z,33.60
2019-01-18T10:31:57.939Z,34.26
2019-01-18T10:34:24.920Z,35.79
2019-01-18T10:36:51.889Z,36.40
2019-01-18T10:39:18.843Z,36.81
2019-01-18T10:41:45.766Z,35.95
2019-01-18T10:44:12.743Z,36.51
2019-01-18T10:46:39.703Z,36.53
2019-01-18T10:49:06.645Z,36.11
2019-01-18T10:51:33.604Z,36.47
2019-01-18T10:54:00.542Z,37.28
2019-01-18T10:56:27.955Z,37.42
2019-01-18T10:58:54.923Z,37.13
2019-01-18T11:01:21.921Z,36.67
2019-01-18T11:03:49.431Z,37.34
2019-01-18T11:06:16.569Z,37.72
2019-01-18T11:08:43.549Z,38.00
2019-01-18T11:11:10.500Z,38.81
2019-01-18T11:13:37.446Z,38.60
2019-01-18T11:16:05.014Z,38.19
2019-01-18T11:18:32.036Z,37.85
2019-01-18T11:20:58.991Z,37.63
2019-01-18T11:23:26.205Z,38.27
2019-01-18T11:25:53.156Z,38.24
2019-01-18T11:28:20.657Z,38.56
2019-01-18T11:30:47.608Z,38.32
2019-01-18T11:33:14.804Z,38.09
2019-01-18T11:35:41.947Z,38.23
2019-01-18T11:38:09.001Z,38.68
2019-01-18T11:40:35.954Z,38.95
2019-01-18T11:43:02.945Z,38.67
2019-01-18T11:45:30.138Z,39.34
2019-01-18T11:47:57.110Z,40.30
2019-01-18T11:50:25.242Z,40.55
2019-01-18T11:52:52.206Z,41.88
2019-01-18T11:55:19.203Z,41.20
2019-01-18T11:57:46.167Z,40.44
2019-01-18T12:00:13.166Z,40.32
2019-01-18T12:02:40.452Z,40.02
2019-01-18T12:05:07.515Z,40.50
2019-01-18T12:07:34.643Z,40.27
2019-01-18T12:10:01.587Z,39.87
2019-01-18T12:12:28.736Z,40.20
2019-01-18T12:14:55.680Z,41.15
2019-01-18T12:17:22.708Z,42.99
2019-01-18T12:19:49.666Z,43.65
2019-01-18T12:22:16.632Z,45.19
2019-01-18T12:24:44.141Z,44.51
2019-01-18T12:27:11.370Z,44.62
2019-01-18T12:29:38.353Z,45.65
2019-01-18T12:32:05.326Z,47.00
2019-01-18T12:34:32.303Z,47.16
2019-01-18T12:36:59.325Z,47.63
2019-01-18T12:39:26.366Z,45.77
2019-01-18T12:41:53.562Z,43.14
2019-01-18T12:44:20.591Z,42.95
2019-01-18T12:46:47.746Z,42.29
2019-01-18T12:49:15.622Z,41.70
2019-01-18T12:51:42.728Z,40.37
2019-01-18T12:54:09.733Z,38.35
2019-01-18T12:56:36.999Z,37.04
2019-01-18T12:59:04.247Z,36.12
2019-01-18T13:01:31.491Z,36.18
2019-01-18T13:03:59.552Z,37.01
2019-01-18T13:06:26.567Z,38.15
2019-01-18T13:08:53.672Z,38.02
2019-01-18T13:11:20.735Z,36.76
2019-01-18T13:13:47.729Z,36.15
2019-01-18T13:16:15.763Z,37.06
2019-01-18T13:18:42.862Z,38.00
2019-01-18T13:21:11.410Z,38.18
2019-01-18T13:23:39.481Z,37.84
2019-01-18T13:26:06.495Z,37.56
2019-01-18T13:28:33.510Z,37.76
2019-01-18T13:31:01.383Z,36.21
2019-01-18T13:33:28.375Z,36.37
2019-01-18T13:35:55.709Z,37.21
2019-01-18T13:38:22.686Z,37.66
2019-01-18T13:40:49.697Z,37.30
2019-01-18T13:43:16.715Z,36.57
2019-01-18T13:45:43.661Z,36.74
2019-01-18T13:48:10.624Z,36.68
2019-01-18T13:50:37.576Z,36.21
2019-01-18T13:53:04.561Z,36.16
2019-01-18T13:55:32.183Z,36.85
2019-01-18T13:57:59.160Z,38.00
2019-01-18T14:00:26.170Z,38.10
2019-01-18T14:02:53.151Z,38.96
2019-01-18T14:05:20.165Z,40.04
2019-01-18T14:07:48.243Z,40.42
2019-01-18T14:10:20.465Z,41.10
2019-01-18T14:12:47.707Z,41.15
2019-01-18T14:15:14.662Z,41.49
2019-01-18T14:17:41.624Z,41.11
2019-01-18T14:20:08.598Z,41.38
2019-01-18T14:22:35.634Z,41.41
2019-01-18T14:25:02.663Z,42.14
2019-01-18T14:27:29.645Z,42.74
2019-01-18T14:29:56.646Z,43.04
2019-01-18T14:32:23.729Z,44.12
2019-01-18T14:34:50.686Z,44.72
2019-01-18T14:37:17.626Z,45.03
2019-01-18T14:39:44.586Z,45.16
2019-01-18T14:42:11.580Z,45.30
2019-01-18T14:44:38.517Z,45.38
2019-01-18T14:47:05.482Z,45.46
2019-01-18T14:49:32.663Z,46.35
2019-01-18T14:51:59.391Z,46.52
2019-01-18T14:54:26.334Z,46.10
2019-01-18T14:56:53.301Z,45.83
2019-01-18T14:59:20.241Z,45.87
2019-01-18T15:01:47.263Z,46.13
2019-01-18T15:04:14.212Z,45.91
2019-01-18T15:06:41.154Z,46.15
2019-01-18T15:09:08.153Z,46.52
2019-01-18T15:11:36.282Z,46.22
2019-01-18T15:14:03.251Z,46.09
2019-01-18T15:16:30.219Z,46.47
2019-01-18T15:18:57.166Z,46.91
2019-01-18T15:21:24.128Z,45.98
2019-01-18T15:23:51.513Z,45.64
2019-01-18T15:26:18.602Z,46.21
2019-01-18T15:28:45.439Z,46.34
2019-01-18T15:31:12.381Z,45.90
2019-01-18T15:33:39.417Z,46.08
2019-01-18T15:36:06.390Z,46.30
2019-01-18T15:38:33.323Z,46.20
2019-01-18T15:41:00.383Z,46.58
2019-01-18T15:43:27.414Z,46.96
2019-01-18T15:45:54.356Z,47.02
2019-01-18T15:48:21.404Z,47.61
2019-01-18T15:50:48.349Z,47.81
2019-01-18T15:53:15.340Z,48.37
2019-01-18T15:55:42.269Z,48.82
2019-01-18T15:58:09.249Z,49.00
2019-01-18T16:00:36.208Z,49.21
2019-01-18T16:03:03.230Z,49.30
2019-01-18T16:05:30.180Z,49.48
2019-01-18T16:07:57.127Z,49.31
2019-01-18T16:10:25.169Z,49.21
2019-01-18T16:12:51.051Z,48.99
2019-01-18T16:15:17.996Z,49.00
2019-01-18T16:17:44.986Z,49.18
2019-01-18T16:20:12.063Z,49.11
2019-01-18T16:22:40.900Z,49.09
2019-01-18T16:25:07.112Z,49.89
2019-01-18T16:27:34.067Z,49.89
2019-01-18T16:30:01.002Z,49.78
2019-01-18T16:32:27.936Z,50.09
2019-01-18T16:34:54.983Z,49.64
2019-01-18T16:37:22.338Z,49.72
2019-01-18T16:39:49.330Z,49.72
2019-01-18T16:42:16.381Z,49.58
2019-01-18T16:44:43.480Z,49.43
2019-01-18T16:47:10.530Z,49.34
2019-01-18T16:49:37.511Z,49.24
2019-01-18T16:52:04.608Z,48.88
2019-01-18T16:54:31.657Z,48.79
2019-01-18T16:56:58.775Z,48.72
2019-01-18T16:59:25.795Z,48.26
2019-01-18T17:01:52.806Z,48.34
2019-01-18T17:04:19.797Z,48.48
2019-01-18T17:06:46.744Z,48.61
2019-01-18T17:09:13.737Z,48.51
2019-01-18T17:11:40.691Z,48.64
2019-01-18T17:14:07.736Z,48.75
2019-01-18T17:16:35.062Z,48.82
2019-01-18T17:19:02.236Z,49.27
2019-01-18T17:21:29.227Z,49.37
2019-01-18T17:23:56.334Z,49.64
2019-01-18T17:26:23.294Z,50.16
2019-01-18T17:28:50.325Z,50.16
2019-01-18T17:31:17.279Z,50.44
2019-01-18T17:33:44.531Z,50.80
2019-01-18T17:36:16.579Z,51.10
2019-01-18T17:38:58.338Z,51.59
2019-01-18T17:41:39.317Z,52.00
2019-01-18T17:44:06.301Z,52.03
2019-01-18T17:46:34.059Z,52.27
2019-01-18T17:49:01.081Z,52.60
2019-01-18T17:51:30.795Z,52.79
2019-01-18T17:54:03.946Z,52.84
2019-01-18T17:56:36.657Z,52.57
2019-01-18T17:59:13.676Z,52.70
2019-01-18T18:01:43.827Z,52.85
2019-01-18T18:04:25.642Z,52.86
2019-01-18T18:09:46.391Z,52.26
2019-01-18T18:12:14.356Z,52.67
2019-01-18T18:14:47.019Z,52.93
2019-01-18T18:17:14.028Z,52.93
2019-01-18T18:19:57.771Z,52.89
2019-01-18T18:22:45.437Z,53.03
2019-01-18T18:25:23.240Z,52.96
2019-01-18T18:27:52.962Z,53.09
2019-01-18T18:30:20.871Z,53.21
2019-01-18T18:32:48.784Z,53.28
2019-01-18T18:35:16.555Z,53.53
2019-01-18T18:37:44.699Z,53.70
2019-01-18T18:40:14.682Z,53.49
2019-01-18T18:42:44.432Z,53.60
2019-01-18T18:45:17.099Z,53.65
2019-01-18T18:47:44.074Z,53.25
2019-01-18T18:50:16.878Z,53.56
2019-01-18T18:52:48.766Z,53.38
2019-01-18T18:55:16.562Z,53.16
2019-01-18T18:57:46.281Z,53.27
2019-01-18T19:00:15.633Z,53.39
2019-01-18T19:02:57.502Z,53.41
2019-01-18T19:05:44.219Z,53.13
2019-01-18T19:08:15.876Z,53.34
2019-01-18T19:10:42.993Z,53.18
2019-01-18T19:13:28.742Z,53.31
2019-01-18T19:15:55.727Z,53.20
2019-01-18T19:18:34.506Z,53.31
2019-01-18T19:21:06.472Z,53.03
2019-01-18T19:23:44.110Z,53.01
2019-01-18T19:26:25.920Z,52.98
2019-01-18T19:29:02.861Z,53.12
2019-01-18T19:31:30.679Z,52.99
2019-01-18T19:34:04.534Z,53.31
2019-01-18T19:36:46.219Z,53.55
2019-01-18T19:39:13.340Z,53.29
2019-01-18T19:41:41.123Z,53.19
2019-01-18T19:44:14.017Z,53.38
2019-01-18T19:46:41.019Z,53.52
2019-01-18T19:49:07.959Z,53.85
2019-01-18T19:51:35.892Z,53.91
2019-01-18T19:54:02.879Z,54.10
2019-01-18T19:56:39.780Z,54.16
2019-01-18T19:59:08.602Z,54.23
2019-01-18T20:01:38.418Z,54.24
2019-01-18T20:04:23.102Z,54.13
2019-01-18T20:06:50.131Z,54.25
2019-01-18T20:09:17.993Z,54.32
2019-01-18T20:12:02.839Z,54.40
2019-01-18T20:14:31.772Z,54.42
2019-01-18T20:17:09.783Z,54.51
2019-01-18T20:19:42.672Z,54.31
2019-01-18T20:22:09.618Z,54.72
2019-01-18T20:24:39.597Z,54.67
2019-01-18T20:27:09.147Z,54.63
2019-01-18T20:29:41.471Z,54.63
2019-01-18T20:32:20.410Z,54.77
2019-01-18T20:34:59.172Z,54.78
2019-01-18T20:37:26.250Z,54.93
2019-01-18T20:39:55.194Z,54.83
2019-01-18T20:42:35.044Z,55.00
2019-01-18T20:45:01.987Z,58.44
2019-01-18T20:47:31.610Z,55.85
2019-01-18T20:49:58.542Z,55.26
2019-01-18T20:52:31.457Z,55.22
2019-01-18T20:55:13.484Z,55.25
2019-01-18T20:57:42.218Z,55.53
2019-01-18T21:00:14.032Z,55.80
2019-01-18T21:02:56.802Z,56.22
2019-01-18T21:05:25.577Z,56.22
2019-01-18T21:07:52.505Z,56.30
2019-01-18T21:10:19.464Z,56.33
2019-01-18T21:12:52.368Z,56.44
2019-01-18T21:15:20.494Z,56.30
2019-01-18T21:17:53.376Z,56.44
2019-01-18T21:20:22.269Z,56.50
2019-01-18T21:23:04.118Z,56.68
2019-01-18T21:25:41.998Z,56.84
2019-01-18T21:28:14.763Z,57.01
2019-01-18T21:30:43.550Z,57.01
2019-01-18T21:33:10.490Z,57.19
2019-01-18T21:35:38.472Z,57.27
2019-01-18T21:38:05.419Z,57.42
2019-01-18T21:40:47.315Z,57.39
2019-01-18T21:43:18.121Z,57.42
2019-01-18T21:45:50.933Z,57.39
2019-01-18T21:48:35.574Z,57.34
2019-01-18T21:51:08.467Z,57.55
2019-01-18T21:53:36.334Z,57.32
2019-01-18T21:56:16.158Z,57.18
2019-01-18T21:58:43.831Z,57.33
2019-01-18T22:01:25.679Z,57.51
2019-01-18T22:03:58.422Z,57.59
2019-01-18T22:06:29.147Z,57.69
2019-01-18T22:09:02.017Z,57.85
2019-01-18T22:11:32.976Z,57.75
2019-01-18T22:14:16.535Z,57.46
2019-01-18T22:16:44.459Z,57.33
2019-01-18T22:19:14.479Z,57.53
2019-01-18T22:21:43.164Z,57.54
2019-01-18T22:24:12.842Z,57.47
2019-01-18T22:26:50.569Z,57.63
2019-01-18T22:29:19.177Z,57.88
2019-01-18T22:31:46.903Z,58.03
2019-01-18T22:34:13.883Z,58.04
2019-01-18T22:36:44.633Z,57.97
2019-01-18T22:39:12.505Z,58.10
2019-01-18T22:41:42.421Z,58.20
2019-01-18T22:44:10.195Z,58.24
2019-01-18T22:46:37.931Z,58.42
2019-01-18T22:49:15.671Z,58.64
2019-01-18T22:51:43.428Z,58.72
2019-01-18T22:54:29.234Z,58.94
2019-01-18T22:57:05.231Z,59.05
2019-01-18T22:59:36.253Z,59.10
2019-01-18T23:02:04.126Z,59.08
2019-01-18T23:04:32.946Z,58.99
2019-01-18T23:07:19.853Z,58.90
2019-01-18T23:09:46.867Z,59.04
2019-01-18T23:12:19.557Z,59.18
2019-01-18T23:15:02.097Z,59.27
2019-01-18T23:17:48.822Z,59.43
2019-01-18T23:20:15.780Z,59.58
2019-01-18T23:22:45.506Z,60.03
2019-01-18T23:25:18.179Z,59.97
2019-01-18T23:27:57.037Z,59.81
2019-01-18T23:30:29.307Z,59.62
2019-01-18T23:32:58.249Z,59.56
2019-01-18T23:35:25.195Z,59.61
2019-01-18T23:38:08.485Z,59.93
2019-01-18T23:40:32.745Z,60.00
2019-01-18T23:42:59.753Z,59.92
2019-01-18T23:45:42.405Z,60.32
2019-01-18T23:48:24.257Z,60.38
2019-01-18T23:50:57.848Z,60.54
2019-01-18T23:53:31.898Z,60.73
2019-01-18T23:55:59.495Z,61.01
